Block Island State Airport

Airport
ICAO code: 
KBID
Summary
ICAO Region: 
NAM
Territory: 
Location: 
Block Island, Rhode Island,
Coordinates: 
Aerial View: 
41° 10' 5.21" N, 71° 34' 40.915" W
Airport BS: 
Bird Strike
Metar
Observation
KBID 021356Z AUTO 17016G22KT 10SM CLR 12/09 A2985 RMK AO2 SLP110 T01220094
Station
Block Island, Block Island State Airport
Date/Time
2021-12-02 13:56:00
Wind direction
170°
Wind speed
16 kts
Lowest cloud amount
n/a
Temperature
12.2°C
Dew point
9.4°C
Humidity
83%
Weather condition
n/a

Description

Block Island State Airport is a public use airport located on Block Island, in Washington County, Rhode Island.

Climatology

Humid continental climate with a strong maritime influence (Köppen climate classification Dfb/Cfb) Precipitation amounts are fairly consistent from month to month regardless of the time of year. Due to the strong oceanic influence, summers are cooler and winters are warmer than on the mainland.

Runways

Designator Length Width Surface Rops
10/28 763 30 ASPH-E No/No
Airport map: 
Aerial View: 

SKYbrary Partners:

Safety knowledge contributed by: